sensor_id;sensor_type;location;lat;lon;timestamp;P1;durP1;ratioP1;P2;durP2;ratioP2
64915;SDS011;51427;-27.442;153.014;2023-12-28T00:01:40;5.00;;;3.97;;
64915;SDS011;51427;-27.442;153.014;2023-12-28T00:05:00;4.57;;;3.20;;
64915;SDS011;51427;-27.442;153.014;2023-12-28T00:08:20;8.57;;;4.90;;
64915;SDS011;51427;-27.442;153.014;2023-12-28T00:11:40;5.75;;;3.00;;
64915;SDS011;51427;-27.442;153.014;2023-12-28T00:14:59;5.88;;;3.22;;
64915;SDS011;51427;-27.442;153.014;2023-12-28T00:18:19;5.47;;;3.25;;
64915;SDS011;51427;-27.442;153.014;2023-12-28T00:21:39;3.47;;;2.85;;
64915;SDS011;51427;-27.442;153.014;2023-12-28T00:24:59;4.25;;;2.90;;
64915;SDS011;51427;-27.442;153.014;2023-12-28T00:28:18;3.58;;;2.97;;
64915;SDS011;51427;-27.442;153.014;2023-12-28T00:31:38;3.85;;;3.40;;
64915;SDS011;51427;-27.442;153.014;2023-12-28T00:34:58;4.85;;;3.28;;
64915;SDS011;51427;-27.442;153.014;2023-12-28T00:38:18;2.95;;;2.70;;
64915;SDS011;51427;-27.442;153.014;2023-12-28T00:41:38;4.75;;;2.28;;
64915;SDS011;51427;-27.442;153.014;2023-12-28T00:44:58;3.88;;;2.80;;
64915;SDS011;51427;-27.442;153.014;2023-12-28T00:48:18;3.70;;;2.65;;
64915;SDS011;51427;-27.442;153.014;2023-12-28T00:51:37;4.47;;;2.47;;
64915;SDS011;51427;-27.442;153.014;2023-12-28T00:54:57;4.50;;;3.50;;
64915;SDS011;51427;-27.442;153.014;2023-12-28T00:58:17;4.53;;;3.90;;
64915;SDS011;51427;-27.442;153.014;2023-12-28T01:01:37;6.72;;;4.57;;
64915;SDS011;51427;-27.442;153.014;2023-12-28T01:04:56;5.82;;;4.30;;
64915;SDS011;51427;-27.442;153.014;2023-12-28T01:08:18;7.60;;;4.00;;
64915;SDS011;51427;-27.442;153.014;2023-12-28T01:11:37;4.60;;;3.58;;
64915;SDS011;51427;-27.442;153.014;2023-12-28T01:14:57;9.48;;;4.45;;
64915;SDS011;51427;-27.442;153.014;2023-12-28T01:18:17;6.75;;;3.85;;
64915;SDS011;51427;-27.442;153.014;2023-12-28T01:21:37;7.85;;;4.30;;
64915;SDS011;51427;-27.442;153.014;2023-12-28T01:24:57;4.38;;;3.72;;
64915;SDS011;51427;-27.442;153.014;2023-12-28T01:28:16;6.25;;;4.05;;
64915;SDS011;51427;-27.442;153.014;2023-12-28T01:31:36;6.68;;;4.13;;
64915;SDS011;51427;-27.442;153.014;2023-12-28T01:34:56;5.93;;;4.22;;
64915;SDS011;51427;-27.442;153.014;2023-12-28T01:38:16;7.15;;;4.15;;
64915;SDS011;51427;-27.442;153.014;2023-12-28T01:41:38;5.80;;;4.38;;
64915;SDS011;51427;-27.442;153.014;2023-12-28T01:44:58;5.68;;;3.80;;
64915;SDS011;51427;-27.442;153.014;2023-12-28T01:48:18;8.85;;;5.53;;
64915;SDS011;51427;-27.442;153.014;2023-12-28T01:51:38;3.75;;;3.35;;
64915;SDS011;51427;-27.442;153.014;2023-12-28T01:54:59;6.50;;;3.47;;
64915;SDS011;51427;-27.442;153.014;2023-12-28T01:58:20;5.78;;;3.33;;
64915;SDS011;51427;-27.442;153.014;2023-12-28T02:01:40;6.53;;;3.67;;
64915;SDS011;51427;-27.442;153.014;2023-12-28T02:05:01;5.40;;;3.55;;
64915;SDS011;51427;-27.442;153.014;2023-12-28T02:08:21;3.80;;;3.20;;
64915;SDS011;51427;-27.442;153.014;2023-12-28T02:11:41;4.15;;;3.00;;
64915;SDS011;51427;-27.442;153.014;2023-12-28T02:15:01;6.93;;;3.92;;
64915;SDS011;51427;-27.442;153.014;2023-12-28T02:18:27;5.63;;;4.10;;
64915;SDS011;51427;-27.442;153.014;2023-12-28T02:21:59;7.40;;;4.72;;
64915;SDS011;51427;-27.442;153.014;2023-12-28T02:25:20;8.00;;;4.57;;
64915;SDS011;51427;-27.442;153.014;2023-12-28T02:28:41;6.78;;;4.40;;
64915;SDS011;51427;-27.442;153.014;2023-12-28T02:32:01;5.35;;;3.85;;
64915;SDS011;51427;-27.442;153.014;2023-12-28T02:35:24;6.22;;;3.80;;
64915;SDS011;51427;-27.442;153.014;2023-12-28T02:38:48;6.18;;;4.20;;
64915;SDS011;51427;-27.442;153.014;2023-12-28T02:42:10;5.75;;;3.78;;
64915;SDS011;51427;-27.442;153.014;2023-12-28T02:45:34;6.27;;;3.97;;
64915;SDS011;51427;-27.442;153.014;2023-12-28T02:48:54;4.15;;;3.70;;
64915;SDS011;51427;-27.442;153.014;2023-12-28T02:52:14;7.28;;;4.47;;
64915;SDS011;51427;-27.442;153.014;2023-12-28T02:55:33;7.45;;;3.55;;
64915;SDS011;51427;-27.442;153.014;2023-12-28T02:58:53;4.75;;;3.55;;
64915;SDS011;51427;-27.442;153.014;2023-12-28T03:02:14;5.40;;;3.90;;
64915;SDS011;51427;-27.442;153.014;2023-12-28T03:05:34;4.10;;;3.53;;
64915;SDS011;51427;-27.442;153.014;2023-12-28T03:08:54;5.40;;;3.40;;
64915;SDS011;51427;-27.442;153.014;2023-12-28T03:12:13;5.18;;;3.33;;
64915;SDS011;51427;-27.442;153.014;2023-12-28T03:15:33;7.97;;;3.83;;
64915;SDS011;51427;-27.442;153.014;2023-12-28T03:18:53;4.40;;;3.42;;
64915;SDS011;51427;-27.442;153.014;2023-12-28T03:22:13;6.05;;;3.80;;
64915;SDS011;51427;-27.442;153.014;2023-12-28T03:25:32;4.60;;;3.42;;
64915;SDS011;51427;-27.442;153.014;2023-12-28T03:28:52;4.97;;;3.58;;
64915;SDS011;51427;-27.442;153.014;2023-12-28T03:32:12;5.80;;;3.13;;
64915;SDS011;51427;-27.442;153.014;2023-12-28T03:35:32;9.27;;;4.35;;
64915;SDS011;51427;-27.442;153.014;2023-12-28T03:38:51;4.90;;;3.45;;
64915;SDS011;51427;-27.442;153.014;2023-12-28T03:42:11;5.05;;;3.50;;
64915;SDS011;51427;-27.442;153.014;2023-12-28T03:45:31;5.38;;;4.07;;
64915;SDS011;51427;-27.442;153.014;2023-12-28T03:48:52;8.57;;;3.80;;
64915;SDS011;51427;-27.442;153.014;2023-12-28T03:52:12;12.82;;;5.15;;
64915;SDS011;51427;-27.442;153.014;2023-12-28T03:55:32;9.73;;;4.15;;
64915;SDS011;51427;-27.442;153.014;2023-12-28T03:58:52;5.10;;;3.95;;
64915;SDS011;51427;-27.442;153.014;2023-12-28T04:02:13;4.90;;;3.70;;
64915;SDS011;51427;-27.442;153.014;2023-12-28T04:05:33;4.65;;;3.72;;
64915;SDS011;51427;-27.442;153.014;2023-12-28T04:08:53;5.43;;;4.40;;
64915;SDS011;51427;-27.442;153.014;2023-12-28T04:12:12;4.47;;;3.85;;
64915;SDS011;51427;-27.442;153.014;2023-12-28T04:15:32;7.80;;;4.10;;
64915;SDS011;51427;-27.442;153.014;2023-12-28T04:18:52;6.50;;;4.00;;
64915;SDS011;51427;-27.442;153.014;2023-12-28T04:22:12;8.48;;;3.90;;
64915;SDS011;51427;-27.442;153.014;2023-12-28T04:25:31;6.50;;;3.97;;
64915;SDS011;51427;-27.442;153.014;2023-12-28T04:28:51;5.00;;;3.67;;
64915;SDS011;51427;-27.442;153.014;2023-12-28T04:32:12;7.40;;;3.47;;
64915;SDS011;51427;-27.442;153.014;2023-12-28T04:35:31;3.90;;;3.38;;
64915;SDS011;51427;-27.442;153.014;2023-12-28T04:38:51;5.22;;;3.60;;
64915;SDS011;51427;-27.442;153.014;2023-12-28T04:42:11;5.55;;;4.00;;
64915;SDS011;51427;-27.442;153.014;2023-12-28T04:45:31;5.97;;;3.42;;
64915;SDS011;51427;-27.442;153.014;2023-12-28T04:48:50;5.00;;;3.20;;
64915;SDS011;51427;-27.442;153.014;2023-12-28T04:52:10;4.03;;;3.05;;
64915;SDS011;51427;-27.442;153.014;2023-12-28T04:55:30;6.32;;;3.22;;
64915;SDS011;51427;-27.442;153.014;2023-12-28T04:58:50;4.97;;;3.58;;
64915;SDS011;51427;-27.442;153.014;2023-12-28T05:02:10;5.07;;;3.35;;
64915;SDS011;51427;-27.442;153.014;2023-12-28T05:05:30;6.70;;;3.90;;
64915;SDS011;51427;-27.442;153.014;2023-12-28T05:08:55;5.07;;;3.60;;
64915;SDS011;51427;-27.442;153.014;2023-12-28T05:12:14;4.63;;;3.22;;
64915;SDS011;51427;-27.442;153.014;2023-12-28T05:15:34;5.60;;;3.42;;
64915;SDS011;51427;-27.442;153.014;2023-12-28T05:18:54;6.13;;;3.58;;
64915;SDS011;51427;-27.442;153.014;2023-12-28T05:22:14;4.63;;;3.45;;
64915;SDS011;51427;-27.442;153.014;2023-12-28T05:25:33;7.43;;;3.28;;
64915;SDS011;51427;-27.442;153.014;2023-12-28T05:28:53;4.57;;;3.20;;
64915;SDS011;51427;-27.442;153.014;2023-12-28T05:32:13;5.38;;;3.28;;
64915;SDS011;51427;-27.442;153.014;2023-12-28T05:35:33;3.72;;;3.15;;
64915;SDS011;51427;-27.442;153.014;2023-12-28T05:38:52;5.43;;;3.63;;
64915;SDS011;51427;-27.442;153.014;2023-12-28T05:42:12;4.40;;;3.33;;
64915;SDS011;51427;-27.442;153.014;2023-12-28T05:45:32;6.65;;;3.45;;
64915;SDS011;51427;-27.442;153.014;2023-12-28T05:48:51;4.82;;;3.40;;
64915;SDS011;51427;-27.442;153.014;2023-12-28T05:52:11;3.92;;;3.33;;
64915;SDS011;51427;-27.442;153.014;2023-12-28T05:55:31;3.92;;;3.40;;
64915;SDS011;51427;-27.442;153.014;2023-12-28T05:58:51;5.45;;;3.20;;
64915;SDS011;51427;-27.442;153.014;2023-12-28T06:02:11;3.75;;;3.10;;
64915;SDS011;51427;-27.442;153.014;2023-12-28T06:05:31;4.20;;;3.00;;
64915;SDS011;51427;-27.442;153.014;2023-12-28T06:08:51;6.38;;;3.70;;
64915;SDS011;51427;-27.442;153.014;2023-12-28T06:12:11;4.10;;;3.58;;
64915;SDS011;51427;-27.442;153.014;2023-12-28T06:15:32;5.88;;;3.17;;
64915;SDS011;51427;-27.442;153.014;2023-12-28T06:18:51;5.35;;;3.30;;
64915;SDS011;51427;-27.442;153.014;2023-12-28T06:22:11;3.97;;;3.63;;
64915;SDS011;51427;-27.442;153.014;2023-12-28T06:25:33;6.75;;;3.85;;
64915;SDS011;51427;-27.442;153.014;2023-12-28T06:28:53;3.65;;;3.30;;
64915;SDS011;51427;-27.442;153.014;2023-12-28T06:32:13;3.65;;;3.15;;
64915;SDS011;51427;-27.442;153.014;2023-12-28T06:35:33;6.22;;;3.47;;
64915;SDS011;51427;-27.442;153.014;2023-12-28T06:38:52;4.25;;;3.47;;
64915;SDS011;51427;-27.442;153.014;2023-12-28T06:42:12;4.90;;;3.55;;
64915;SDS011;51427;-27.442;153.014;2023-12-28T06:45:32;3.85;;;3.28;;
64915;SDS011;51427;-27.442;153.014;2023-12-28T06:48:52;5.82;;;3.15;;
64915;SDS011;51427;-27.442;153.014;2023-12-28T06:52:12;5.05;;;3.45;;
64915;SDS011;51427;-27.442;153.014;2023-12-28T06:55:32;6.07;;;3.30;;
64915;SDS011;51427;-27.442;153.014;2023-12-28T06:58:51;4.00;;;3.10;;
64915;SDS011;51427;-27.442;153.014;2023-12-28T07:02:11;7.63;;;3.45;;
64915;SDS011;51427;-27.442;153.014;2023-12-28T07:05:31;5.05;;;3.08;;
64915;SDS011;51427;-27.442;153.014;2023-12-28T07:08:51;4.63;;;3.03;;
64915;SDS011;51427;-27.442;153.014;2023-12-28T07:12:11;6.07;;;3.40;;
64915;SDS011;51427;-27.442;153.014;2023-12-28T07:15:31;5.35;;;3.08;;
64915;SDS011;51427;-27.442;153.014;2023-12-28T07:18:52;3.67;;;3.00;;
64915;SDS011;51427;-27.442;153.014;2023-12-28T07:22:12;5.65;;;3.10;;
64915;SDS011;51427;-27.442;153.014;2023-12-28T07:25:32;4.10;;;3.10;;
64915;SDS011;51427;-27.442;153.014;2023-12-28T07:28:52;3.85;;;3.08;;
64915;SDS011;51427;-27.442;153.014;2023-12-28T07:32:11;5.85;;;2.97;;
64915;SDS011;51427;-27.442;153.014;2023-12-28T07:35:31;4.03;;;3.35;;
64915;SDS011;51427;-27.442;153.014;2023-12-28T07:38:51;5.90;;;3.30;;
64915;SDS011;51427;-27.442;153.014;2023-12-28T07:42:11;4.20;;;3.15;;
64915;SDS011;51427;-27.442;153.014;2023-12-28T07:45:31;6.63;;;3.72;;
64915;SDS011;51427;-27.442;153.014;2023-12-28T07:48:51;6.18;;;3.90;;
64915;SDS011;51427;-27.442;153.014;2023-12-28T07:52:10;4.55;;;3.38;;
64915;SDS011;51427;-27.442;153.014;2023-12-28T07:55:30;6.20;;;3.65;;
64915;SDS011;51427;-27.442;153.014;2023-12-28T07:58:50;5.10;;;3.55;;
64915;SDS011;51427;-27.442;153.014;2023-12-28T08:02:09;6.03;;;3.78;;
64915;SDS011;51427;-27.442;153.014;2023-12-28T08:05:29;9.20;;;3.97;;
64915;SDS011;51427;-27.442;153.014;2023-12-28T08:08:49;6.97;;;3.78;;
64915;SDS011;51427;-27.442;153.014;2023-12-28T08:12:09;12.82;;;4.75;;
64915;SDS011;51427;-27.442;153.014;2023-12-28T08:15:29;8.88;;;4.47;;
64915;SDS011;51427;-27.442;153.014;2023-12-28T08:18:48;8.95;;;4.47;;
64915;SDS011;51427;-27.442;153.014;2023-12-28T08:22:08;10.02;;;4.88;;
64915;SDS011;51427;-27.442;153.014;2023-12-28T08:25:28;8.85;;;5.18;;
64915;SDS011;51427;-27.442;153.014;2023-12-28T08:28:48;7.07;;;4.18;;
64915;SDS011;51427;-27.442;153.014;2023-12-28T08:32:11;10.85;;;5.30;;
64915;SDS011;51427;-27.442;153.014;2023-12-28T08:35:31;7.70;;;4.47;;
64915;SDS011;51427;-27.442;153.014;2023-12-28T08:38:51;8.65;;;4.35;;
64915;SDS011;51427;-27.442;153.014;2023-12-28T08:42:10;7.88;;;4.88;;
64915;SDS011;51427;-27.442;153.014;2023-12-28T08:45:30;7.35;;;4.65;;
64915;SDS011;51427;-27.442;153.014;2023-12-28T08:48:54;7.10;;;4.82;;
64915;SDS011;51427;-27.442;153.014;2023-12-28T08:52:14;7.85;;;4.50;;
64915;SDS011;51427;-27.442;153.014;2023-12-28T08:55:33;9.77;;;5.20;;
64915;SDS011;51427;-27.442;153.014;2023-12-28T08:58:53;8.90;;;4.75;;
64915;SDS011;51427;-27.442;153.014;2023-12-28T09:02:13;6.90;;;4.93;;
64915;SDS011;51427;-27.442;153.014;2023-12-28T09:05:34;8.30;;;4.72;;
64915;SDS011;51427;-27.442;153.014;2023-12-28T09:08:53;8.57;;;5.18;;
64915;SDS011;51427;-27.442;153.014;2023-12-28T09:12:13;10.55;;;4.72;;
64915;SDS011;51427;-27.442;153.014;2023-12-28T09:15:33;7.18;;;4.63;;
64915;SDS011;51427;-27.442;153.014;2023-12-28T09:18:53;9.90;;;5.28;;
64915;SDS011;51427;-27.442;153.014;2023-12-28T09:22:13;8.43;;;5.15;;
64915;SDS011;51427;-27.442;153.014;2023-12-28T09:25:35;9.23;;;5.53;;
64915;SDS011;51427;-27.442;153.014;2023-12-28T09:28:55;10.40;;;5.57;;
64915;SDS011;51427;-27.442;153.014;2023-12-28T09:32:14;9.23;;;4.60;;
64915;SDS011;51427;-27.442;153.014;2023-12-28T09:35:34;9.25;;;4.50;;
64915;SDS011;51427;-27.442;153.014;2023-12-28T09:38:54;7.45;;;4.68;;
64915;SDS011;51427;-27.442;153.014;2023-12-28T09:42:25;7.38;;;4.32;;
64915;SDS011;51427;-27.442;153.014;2023-12-28T09:45:52;8.65;;;4.15;;
64915;SDS011;51427;-27.442;153.014;2023-12-28T09:49:12;7.20;;;4.72;;
64915;SDS011;51427;-27.442;153.014;2023-12-28T09:52:32;6.45;;;4.28;;
64915;SDS011;51427;-27.442;153.014;2023-12-28T09:55:52;10.73;;;5.10;;
64915;SDS011;51427;-27.442;153.014;2023-12-28T09:59:12;9.48;;;4.63;;
64915;SDS011;51427;-27.442;153.014;2023-12-28T10:02:33;9.13;;;4.80;;
64915;SDS011;51427;-27.442;153.014;2023-12-28T10:05:53;12.73;;;5.15;;
64915;SDS011;51427;-27.442;153.014;2023-12-28T10:09:13;10.05;;;4.57;;
64915;SDS011;51427;-27.442;153.014;2023-12-28T10:12:34;9.60;;;4.45;;
64915;SDS011;51427;-27.442;153.014;2023-12-28T10:15:59;10.32;;;4.53;;
64915;SDS011;51427;-27.442;153.014;2023-12-28T10:19:22;11.48;;;5.10;;
64915;SDS011;51427;-27.442;153.014;2023-12-28T10:22:41;11.02;;;4.55;;
64915;SDS011;51427;-27.442;153.014;2023-12-28T10:26:01;8.75;;;4.47;;
64915;SDS011;51427;-27.442;153.014;2023-12-28T10:29:24;9.23;;;4.65;;
64915;SDS011;51427;-27.442;153.014;2023-12-28T10:32:45;13.02;;;4.72;;
64915;SDS011;51427;-27.442;153.014;2023-12-28T10:36:06;9.68;;;4.82;;
64915;SDS011;51427;-27.442;153.014;2023-12-28T10:39:27;10.57;;;4.25;;
64915;SDS011;51427;-27.442;153.014;2023-12-28T10:42:52;8.98;;;4.18;;
64915;SDS011;51427;-27.442;153.014;2023-12-28T10:46:25;10.88;;;4.40;;
64915;SDS011;51427;-27.442;153.014;2023-12-28T10:49:46;10.15;;;4.78;;
64915;SDS011;51427;-27.442;153.014;2023-12-28T10:56:56;9.32;;;4.40;;
64915;SDS011;51427;-27.442;153.014;2023-12-28T11:00:50;12.48;;;5.85;;
64915;SDS011;51427;-27.442;153.014;2023-12-28T11:04:34;10.82;;;4.60;;
64915;SDS011;51427;-27.442;153.014;2023-12-28T11:07:58;17.33;;;4.90;;
64915;SDS011;51427;-27.442;153.014;2023-12-28T11:11:19;12.95;;;4.70;;
64915;SDS011;51427;-27.442;153.014;2023-12-28T11:14:39;15.30;;;5.40;;
64915;SDS011;51427;-27.442;153.014;2023-12-28T11:18:00;9.43;;;4.75;;
64915;SDS011;51427;-27.442;153.014;2023-12-28T11:21:21;10.73;;;4.63;;
64915;SDS011;51427;-27.442;153.014;2023-12-28T11:24:42;12.23;;;4.63;;
64915;SDS011;51427;-27.442;153.014;2023-12-28T11:28:08;11.40;;;4.63;;
64915;SDS011;51427;-27.442;153.014;2023-12-28T11:31:31;11.98;;;4.55;;
64915;SDS011;51427;-27.442;153.014;2023-12-28T11:34:57;13.38;;;5.30;;
64915;SDS011;51427;-27.442;153.014;2023-12-28T11:38:19;10.38;;;4.72;;
64915;SDS011;51427;-27.442;153.014;2023-12-28T11:41:46;13.02;;;4.97;;
64915;SDS011;51427;-27.442;153.014;2023-12-28T11:45:14;12.05;;;4.65;;
64915;SDS011;51427;-27.442;153.014;2023-12-28T11:48:35;10.10;;;5.00;;
64915;SDS011;51427;-27.442;153.014;2023-12-28T11:51:58;13.93;;;5.03;;
64915;SDS011;51427;-27.442;153.014;2023-12-28T11:55:24;11.43;;;4.63;;
64915;SDS011;51427;-27.442;153.014;2023-12-28T11:58:44;11.95;;;4.57;;
64915;SDS011;51427;-27.442;153.014;2023-12-28T12:02:03;9.95;;;4.60;;
64915;SDS011;51427;-27.442;153.014;2023-12-28T12:05:24;10.75;;;4.60;;
64915;SDS011;51427;-27.442;153.014;2023-12-28T12:08:48;14.35;;;4.60;;
64915;SDS011;51427;-27.442;153.014;2023-12-28T12:12:08;12.25;;;5.00;;
64915;SDS011;51427;-27.442;153.014;2023-12-28T12:15:29;9.77;;;4.30;;
64915;SDS011;51427;-27.442;153.014;2023-12-28T12:18:49;10.60;;;3.90;;
64915;SDS011;51427;-27.442;153.014;2023-12-28T12:22:10;10.13;;;5.00;;
64915;SDS011;51427;-27.442;153.014;2023-12-28T12:25:30;12.40;;;4.70;;
64915;SDS011;51427;-27.442;153.014;2023-12-28T12:28:51;13.25;;;4.80;;
64915;SDS011;51427;-27.442;153.014;2023-12-28T12:32:14;12.27;;;4.97;;
64915;SDS011;51427;-27.442;153.014;2023-12-28T12:35:35;8.98;;;4.13;;
64915;SDS011;51427;-27.442;153.014;2023-12-28T12:38:55;12.00;;;4.80;;
64915;SDS011;51427;-27.442;153.014;2023-12-28T12:42:16;9.93;;;4.57;;
64915;SDS011;51427;-27.442;153.014;2023-12-28T12:45:36;11.35;;;4.70;;
64915;SDS011;51427;-27.442;153.014;2023-12-28T12:52:22;10.48;;;4.80;;
64915;SDS011;51427;-27.442;153.014;2023-12-28T12:55:42;10.98;;;4.82;;
64915;SDS011;51427;-27.442;153.014;2023-12-28T12:59:02;13.88;;;4.97;;
64915;SDS011;51427;-27.442;153.014;2023-12-28T13:02:23;10.68;;;5.13;;
64915;SDS011;51427;-27.442;153.014;2023-12-28T13:05:43;10.68;;;4.53;;
64915;SDS011;51427;-27.442;153.014;2023-12-28T13:09:05;9.07;;;4.68;;
64915;SDS011;51427;-27.442;153.014;2023-12-28T13:12:25;9.15;;;4.70;;
64915;SDS011;51427;-27.442;153.014;2023-12-28T13:15:45;12.55;;;5.18;;
64915;SDS011;51427;-27.442;153.014;2023-12-28T13:19:05;11.55;;;5.80;;
64915;SDS011;51427;-27.442;153.014;2023-12-28T13:22:24;12.50;;;4.85;;
64915;SDS011;51427;-27.442;153.014;2023-12-28T13:25:44;12.63;;;5.22;;
64915;SDS011;51427;-27.442;153.014;2023-12-28T13:29:04;9.60;;;5.28;;
64915;SDS011;51427;-27.442;153.014;2023-12-28T13:32:24;8.13;;;4.65;;
64915;SDS011;51427;-27.442;153.014;2023-12-28T13:35:44;9.32;;;4.78;;
64915;SDS011;51427;-27.442;153.014;2023-12-28T13:39:04;10.05;;;4.93;;
64915;SDS011;51427;-27.442;153.014;2023-12-28T13:42:23;13.18;;;5.45;;
64915;SDS011;51427;-27.442;153.014;2023-12-28T13:45:43;12.25;;;5.45;;
64915;SDS011;51427;-27.442;153.014;2023-12-28T13:48:56;11.52;;;5.20;;
64915;SDS011;51427;-27.442;153.014;2023-12-28T13:52:16;12.77;;;4.95;;
64915;SDS011;51427;-27.442;153.014;2023-12-28T13:55:36;11.85;;;5.10;;
64915;SDS011;51427;-27.442;153.014;2023-12-28T13:58:56;11.75;;;5.20;;
64915;SDS011;51427;-27.442;153.014;2023-12-28T14:02:15;11.20;;;5.50;;
64915;SDS011;51427;-27.442;153.014;2023-12-28T14:05:35;14.25;;;5.20;;
64915;SDS011;51427;-27.442;153.014;2023-12-28T14:08:55;12.65;;;5.05;;
64915;SDS011;51427;-27.442;153.014;2023-12-28T14:12:15;12.27;;;5.00;;
64915;SDS011;51427;-27.442;153.014;2023-12-28T14:15:35;11.23;;;4.70;;
64915;SDS011;51427;-27.442;153.014;2023-12-28T14:18:55;12.63;;;5.25;;
64915;SDS011;51427;-27.442;153.014;2023-12-28T14:22:16;9.73;;;4.95;;
64915;SDS011;51427;-27.442;153.014;2023-12-28T14:25:38;10.98;;;5.22;;
64915;SDS011;51427;-27.442;153.014;2023-12-28T14:28:59;10.38;;;5.10;;
64915;SDS011;51427;-27.442;153.014;2023-12-28T14:32:19;11.23;;;4.72;;
64915;SDS011;51427;-27.442;153.014;2023-12-28T14:35:39;8.50;;;4.43;;
64915;SDS011;51427;-27.442;153.014;2023-12-28T14:39:02;10.63;;;4.82;;
64915;SDS011;51427;-27.442;153.014;2023-12-28T14:42:22;12.30;;;5.50;;
64915;SDS011;51427;-27.442;153.014;2023-12-28T14:45:41;14.10;;;5.13;;
64915;SDS011;51427;-27.442;153.014;2023-12-28T14:49:01;10.18;;;4.97;;
64915;SDS011;51427;-27.442;153.014;2023-12-28T14:52:24;10.05;;;4.75;;
64915;SDS011;51427;-27.442;153.014;2023-12-28T14:55:44;11.18;;;5.30;;
64915;SDS011;51427;-27.442;153.014;2023-12-28T14:59:04;11.90;;;5.32;;
64915;SDS011;51427;-27.442;153.014;2023-12-28T15:02:24;12.18;;;5.35;;
64915;SDS011;51427;-27.442;153.014;2023-12-28T15:05:43;12.43;;;5.03;;
64915;SDS011;51427;-27.442;153.014;2023-12-28T15:09:03;11.48;;;5.40;;
64915;SDS011;51427;-27.442;153.014;2023-12-28T15:12:23;9.70;;;5.43;;
64915;SDS011;51427;-27.442;153.014;2023-12-28T15:15:44;10.63;;;5.15;;
64915;SDS011;51427;-27.442;153.014;2023-12-28T15:19:04;10.77;;;4.75;;
64915;SDS011;51427;-27.442;153.014;2023-12-28T15:22:25;9.73;;;5.28;;
64915;SDS011;51427;-27.442;153.014;2023-12-28T15:25:46;9.32;;;5.00;;
64915;SDS011;51427;-27.442;153.014;2023-12-28T15:29:06;8.95;;;5.20;;
64915;SDS011;51427;-27.442;153.014;2023-12-28T15:32:25;11.30;;;5.18;;
64915;SDS011;51427;-27.442;153.014;2023-12-28T15:35:45;11.85;;;5.05;;
64915;SDS011;51427;-27.442;153.014;2023-12-28T15:39:05;9.32;;;5.35;;
64915;SDS011;51427;-27.442;153.014;2023-12-28T15:42:25;7.82;;;5.00;;
64915;SDS011;51427;-27.442;153.014;2023-12-28T15:45:45;10.95;;;5.20;;
64915;SDS011;51427;-27.442;153.014;2023-12-28T15:49:04;7.50;;;4.75;;
64915;SDS011;51427;-27.442;153.014;2023-12-28T15:52:26;9.00;;;5.40;;
64915;SDS011;51427;-27.442;153.014;2023-12-28T15:55:46;9.57;;;4.53;;
64915;SDS011;51427;-27.442;153.014;2023-12-28T15:59:06;9.02;;;5.47;;
64915;SDS011;51427;-27.442;153.014;2023-12-28T16:02:26;8.43;;;5.43;;
64915;SDS011;51427;-27.442;153.014;2023-12-28T16:05:46;10.70;;;5.70;;
64915;SDS011;51427;-27.442;153.014;2023-12-28T16:09:06;8.25;;;5.63;;
64915;SDS011;51427;-27.442;153.014;2023-12-28T16:12:26;7.80;;;5.50;;
64915;SDS011;51427;-27.442;153.014;2023-12-28T16:15:46;9.63;;;5.90;;
64915;SDS011;51427;-27.442;153.014;2023-12-28T16:19:06;9.40;;;5.90;;
64915;SDS011;51427;-27.442;153.014;2023-12-28T16:22:26;12.23;;;6.53;;
64915;SDS011;51427;-27.442;153.014;2023-12-28T16:25:47;10.98;;;6.10;;
64915;SDS011;51427;-27.442;153.014;2023-12-28T16:29:06;10.23;;;6.30;;
64915;SDS011;51427;-27.442;153.014;2023-12-28T16:32:26;11.20;;;5.88;;
64915;SDS011;51427;-27.442;153.014;2023-12-28T16:35:46;11.32;;;6.40;;
64915;SDS011;51427;-27.442;153.014;2023-12-28T16:39:06;10.45;;;6.40;;
64915;SDS011;51427;-27.442;153.014;2023-12-28T16:42:26;10.02;;;6.03;;
64915;SDS011;51427;-27.442;153.014;2023-12-28T16:45:46;8.57;;;5.75;;
64915;SDS011;51427;-27.442;153.014;2023-12-28T16:49:10;10.10;;;6.10;;
64915;SDS011;51427;-27.442;153.014;2023-12-28T16:52:30;15.32;;;7.15;;
64915;SDS011;51427;-27.442;153.014;2023-12-28T16:55:50;10.32;;;5.72;;
64915;SDS011;51427;-27.442;153.014;2023-12-28T16:59:10;10.13;;;7.65;;
64915;SDS011;51427;-27.442;153.014;2023-12-28T17:02:30;10.60;;;8.55;;
64915;SDS011;51427;-27.442;153.014;2023-12-28T17:05:50;12.75;;;9.35;;
64915;SDS011;51427;-27.442;153.014;2023-12-28T17:09:10;11.10;;;8.38;;
64915;SDS011;51427;-27.442;153.014;2023-12-28T17:12:39;11.75;;;9.40;;
64915;SDS011;51427;-27.442;153.014;2023-12-28T17:16:00;15.45;;;9.38;;
64915;SDS011;51427;-27.442;153.014;2023-12-28T17:19:20;13.05;;;9.88;;
64915;SDS011;51427;-27.442;153.014;2023-12-28T17:22:46;16.13;;;9.30;;
64915;SDS011;51427;-27.442;153.014;2023-12-28T17:29:32;14.20;;;9.30;;
64915;SDS011;51427;-27.442;153.014;2023-12-28T17:32:57;13.73;;;9.70;;
64915;SDS011;51427;-27.442;153.014;2023-12-28T17:36:17;13.23;;;8.45;;
64915;SDS011;51427;-27.442;153.014;2023-12-28T17:39:37;13.95;;;8.43;;
64915;SDS011;51427;-27.442;153.014;2023-12-28T17:42:58;12.73;;;9.38;;
64915;SDS011;51427;-27.442;153.014;2023-12-28T17:46:24;14.82;;;10.13;;
64915;SDS011;51427;-27.442;153.014;2023-12-28T17:49:52;14.00;;;9.80;;
64915;SDS011;51427;-27.442;153.014;2023-12-28T17:53:14;12.15;;;9.98;;
64915;SDS011;51427;-27.442;153.014;2023-12-28T17:56:34;14.70;;;9.18;;
64915;SDS011;51427;-27.442;153.014;2023-12-28T17:59:54;10.90;;;9.02;;
64915;SDS011;51427;-27.442;153.014;2023-12-28T18:03:14;10.07;;;8.27;;
64915;SDS011;51427;-27.442;153.014;2023-12-28T18:06:34;14.00;;;8.88;;
64915;SDS011;51427;-27.442;153.014;2023-12-28T18:09:54;15.98;;;10.30;;
64915;SDS011;51427;-27.442;153.014;2023-12-28T18:13:13;13.60;;;10.10;;
64915;SDS011;51427;-27.442;153.014;2023-12-28T18:16:33;14.43;;;9.95;;
64915;SDS011;51427;-27.442;153.014;2023-12-28T18:19:53;11.55;;;9.23;;
64915;SDS011;51427;-27.442;153.014;2023-12-28T18:23:14;13.27;;;9.15;;
64915;SDS011;51427;-27.442;153.014;2023-12-28T18:26:35;14.02;;;9.07;;
64915;SDS011;51427;-27.442;153.014;2023-12-28T18:29:56;13.93;;;10.10;;
64915;SDS011;51427;-27.442;153.014;2023-12-28T18:33:16;13.40;;;9.75;;
64915;SDS011;51427;-27.442;153.014;2023-12-28T18:36:35;10.45;;;8.93;;
64915;SDS011;51427;-27.442;153.014;2023-12-28T18:39:55;12.02;;;8.25;;
64915;SDS011;51427;-27.442;153.014;2023-12-28T18:43:15;14.55;;;7.65;;
64915;SDS011;51427;-27.442;153.014;2023-12-28T18:46:35;11.50;;;7.50;;
64915;SDS011;51427;-27.442;153.014;2023-12-28T18:49:55;12.80;;;7.03;;
64915;SDS011;51427;-27.442;153.014;2023-12-28T18:53:15;13.98;;;7.97;;
64915;SDS011;51427;-27.442;153.014;2023-12-28T18:56:34;12.60;;;7.22;;
64915;SDS011;51427;-27.442;153.014;2023-12-28T18:59:54;12.20;;;7.47;;
64915;SDS011;51427;-27.442;153.014;2023-12-28T19:03:14;11.93;;;6.93;;
64915;SDS011;51427;-27.442;153.014;2023-12-28T19:06:34;14.27;;;6.50;;
64915;SDS011;51427;-27.442;153.014;2023-12-28T19:09:54;9.15;;;6.05;;
64915;SDS011;51427;-27.442;153.014;2023-12-28T19:13:14;12.38;;;6.95;;
64915;SDS011;51427;-27.442;153.014;2023-12-28T19:16:33;9.00;;;6.03;;
64915;SDS011;51427;-27.442;153.014;2023-12-28T19:19:53;12.57;;;6.75;;